PWSweather.com
Personal Weather Stations
Station Observations
SBERGENWX
Wood Ridge, NJ 07075

Wood Ridge, NJ 07075

Lat: 40.851667, Lon: -74.088131

Elevation: 177

Station Type: Davis Vantage Vue

http://201weather.com/

High Low Average
Temperature 32.9°F0.5°C 3.3°F-15.9°C 20.5°F-6.4°C
Dew Point 29.7°F-1.3°C -15.5°F-26.4°C 6.7°F-14.1°C
Winds 12.7 mph 20.4 kmh Calm Calm 3.0 mph WSW4.8 kmh WSW
Wind Gusts 21.9 mph35.2 kmh -- 7.0 mph11.3 kmh
Humidity 88% 32% 57%
Pressure 30.24 in1024.0 mb 29.77 in1008.1 mb -
Precipitation 0.00 in0.0 mm - -
Hour Temp Dew Point Humidity Winds Wind Gusts Pressure Precip Precip Rate Daily Precip Total
12:00 AM 33.6°F0.9°C 32.1°F0.1°C 94% Calm Calm 3.5 mph5.6 kmh 29.82 in1009.8 mb - 0.01 in0.3 mm 0.26 in6.6 mm
12:15 AM 33.4°F0.8°C 31.9°F-0.1°C 94% 1.2 mph W1.9 kmh W 3.5 mph5.6 kmh 29.81 in1009.5 mb - 0.00 in0.0 mm 0.26 in6.6 mm
12:30 AM 33.2°F0.7°C 31.4°F-0.3°C 93% 2.3 mph W3.7 kmh W 3.5 mph5.6 kmh 29.81 in1009.5 mb - 0.00 in0.0 mm 0.26 in6.6 mm
12:45 AM 33.0°F0.6°C 30.4°F-0.9°C 90% 3.5 mph WNW5.6 kmh WNW 9.2 mph14.8 kmh 29.81 in1009.5 mb - 0.00 in0.0 mm 0.26 in6.6 mm
01:00 AM 32.9°F0.5°C 29.7°F-1.3°C 88% 2.3 mph W3.7 kmh W 3.5 mph5.6 kmh 29.81 in1009.5 mb - 0.00 in0.0 mm 0.01 in0.3 mm
01:15 AM 32.6°F0.3°C 29.2°F-1.6°C 87% 1.2 mph WSW1.9 kmh WSW 5.8 mph9.3 kmh 29.81 in1009.5 mb - 0.00 in0.0 mm 0.01 in0.3 mm
01:30 AM 32.3°F0.2°C 28.9°F-1.7°C 87% 1.2 mph WNW1.9 kmh WNW 2.3 mph3.7 kmh 29.81 in1009.5 mb - 0.00 in0.0 mm 0.01 in0.3 mm
01:45 AM 31.6°F-0.2°C 27.4°F-2.6°C 84% 3.5 mph WNW5.6 kmh WNW 8.1 mph13.0 kmh 29.82 in1009.8 mb - 0.00 in0.0 mm 0.01 in0.3 mm
02:00 AM 32.2°F0.1°C 27.9°F-2.3°C 84% Calm Calm -- 29.82 in1009.8 mb - 0.00 in0.0 mm 0.01 in0.3 mm
02:15 AM 32.2°F0.1°C 27.9°F-2.3°C 84% Calm Calm -- 29.83 in1010.2 mb - 0.00 in0.0 mm 0.01 in0.3 mm
02:30 AM 32.2°F0.1°C 27.9°F-2.3°C 84% Calm Calm -- 29.83 in1010.2 mb - 0.00 in0.0 mm 0.01 in0.3 mm
02:45 AM 32.2°F0.1°C 27.9°F-2.3°C 84% Calm Calm -- 29.84 in1010.5 mb - 0.00 in0.0 mm 0.01 in0.3 mm
03:00 AM 32.2°F0.1°C 27.9°F-2.3°C 84% Calm Calm -- 29.84 in1010.5 mb - 0.00 in0.0 mm 0.01 in0.3 mm
03:15 AM 32.2°F0.1°C 27.9°F-2.3°C 84% Calm Calm -- 29.85 in1010.8 mb - 0.00 in0.0 mm 0.01 in0.3 mm
03:30 AM 32.2°F0.1°C 27.9°F-2.3°C 84% Calm Calm -- 29.85 in1010.8 mb - 0.00 in0.0 mm 0.01 in0.3 mm
03:45 AM 32.2°F0.1°C 27.9°F-2.3°C 84% Calm Calm -- 29.87 in1011.5 mb - 0.00 in0.0 mm 0.01 in0.3 mm
04:00 AM 32.2°F0.1°C 27.9°F-2.3°C 84% Calm Calm -- 29.87 in1011.5 mb - 0.00 in0.0 mm 0.01 in0.3 mm
04:15 AM 32.2°F0.1°C 27.9°F-2.3°C 84% Calm Calm -- 29.88 in1011.9 mb - 0.00 in0.0 mm 0.01 in0.3 mm
04:30 AM 32.2°F0.1°C 27.9°F-2.3°C 84% Calm Calm -- 29.88 in1011.9 mb - 0.00 in0.0 mm 0.01 in0.3 mm
04:45 AM 32.2°F0.1°C 27.9°F-2.3°C 84% Calm Calm -- 29.89 in1012.2 mb - 0.00 in0.0 mm 0.01 in0.3 mm
05:00 AM 32.2°F0.1°C 27.9°F-2.3°C 84% Calm Calm -- 29.89 in1012.2 mb - 0.00 in0.0 mm 0.01 in0.3 mm
05:15 AM 32.2°F0.1°C 27.9°F-2.3°C 84% Calm Calm -- 29.90 in1012.5 mb - 0.00 in0.0 mm 0.01 in0.3 mm
05:30 AM 32.2°F0.1°C 27.9°F-2.3°C 84% Calm Calm -- 29.90 in1012.5 mb - 0.00 in0.0 mm 0.01 in0.3 mm
05:45 AM 20.0°F-6.7°C 9.8°F-12.3°C 64% 6.9 mph W11.1 kmh W 9.2 mph14.8 kmh 29.90 in1012.5 mb - 0.00 in0.0 mm 0.01 in0.3 mm
06:00 AM 19.8°F-6.8°C 9.6°F-12.4°C 64% 4.6 mph WNW7.4 kmh WNW 8.1 mph13.0 kmh 29.91 in1012.9 mb - 0.00 in0.0 mm 0.01 in0.3 mm
06:15 AM 19.4°F-7.0°C 9.2°F-12.7°C 64% 2.3 mph WNW3.7 kmh WNW 3.5 mph5.6 kmh 29.91 in1012.9 mb - 0.00 in0.0 mm 0.01 in0.3 mm
06:30 AM 19.1°F-7.2°C 9.3°F-12.6°C 65% Calm Calm 5.8 mph9.3 kmh 29.90 in1012.5 mb - 0.00 in0.0 mm 0.01 in0.3 mm
06:45 AM 18.9°F-7.3°C 9.1°F-12.7°C 65% 4.6 mph WNW7.4 kmh WNW 11.5 mph18.5 kmh 29.91 in1012.9 mb - 0.00 in0.0 mm 0.01 in0.3 mm
07:00 AM 18.7°F-7.4°C 8.9°F-12.8°C 65% 2.3 mph WNW3.7 kmh WNW 3.5 mph5.6 kmh 29.91 in1012.9 mb - 0.00 in0.0 mm 0.01 in0.3 mm
07:15 AM 18.4°F-7.6°C 8.9°F-12.8°C 66% 2.3 mph WNW3.7 kmh WNW 3.5 mph5.6 kmh 29.91 in1012.9 mb - 0.00 in0.0 mm 0.01 in0.3 mm
07:30 AM 18.1°F-7.7°C 8.6°F-13.0°C 66% 4.6 mph WNW7.4 kmh WNW 6.9 mph11.1 kmh 29.91 in1012.9 mb - 0.00 in0.0 mm 0.01 in0.3 mm
07:45 AM 17.9°F-7.8°C 8.5°F-13.1°C 66% 3.5 mph W5.6 kmh W 8.1 mph13.0 kmh 29.92 in1013.2 mb - 0.00 in0.0 mm 0.01 in0.3 mm
08:00 AM 17.7°F-7.9°C 7.9°F-13.4°C 65% 1.2 mph W1.9 kmh W 5.8 mph9.3 kmh 29.92 in1013.2 mb - 0.00 in0.0 mm 0.01 in0.3 mm
08:15 AM 17.5°F-8.1°C 8.1°F-13.3°C 66% 3.5 mph WNW5.6 kmh WNW 5.8 mph9.3 kmh 29.93 in1013.5 mb - 0.00 in0.0 mm 0.01 in0.3 mm
08:30 AM 17.5°F-8.1°C 7.7°F-13.5°C 65% 2.3 mph WNW3.7 kmh WNW 3.5 mph5.6 kmh 29.94 in1013.9 mb - 0.00 in0.0 mm 0.01 in0.3 mm
08:45 AM 17.7°F-7.9°C 7.9°F-13.4°C 65% 2.3 mph W3.7 kmh W 4.6 mph7.4 kmh 29.94 in1013.9 mb - 0.00 in0.0 mm 0.01 in0.3 mm
09:00 AM 17.9°F-7.8°C 8.1°F-13.3°C 65% Calm Calm 3.5 mph5.6 kmh 29.95 in1014.2 mb - 0.00 in0.0 mm 0.01 in0.3 mm
09:15 AM 18.2°F-7.7°C 7.3°F-13.7°C 62% 1.2 mph WNW1.9 kmh WNW 1.2 mph1.9 kmh 29.95 in1014.2 mb - 0.00 in0.0 mm 0.01 in0.3 mm
09:30 AM 18.8°F-7.3°C 7.2°F-13.8°C 60% 1.2 mph W1.9 kmh W 3.5 mph5.6 kmh 29.96 in1014.6 mb - 0.00 in0.0 mm 0.01 in0.3 mm
09:45 AM 19.5°F-6.9°C 7.1°F-13.8°C 58% 1.2 mph W1.9 kmh W 3.5 mph5.6 kmh 29.96 in1014.6 mb - 0.00 in0.0 mm 0.01 in0.3 mm
10:00 AM 19.7°F-6.8°C 6.2°F-14.3°C 55% Calm Calm 1.2 mph1.9 kmh 29.96 in1014.6 mb - 0.00 in0.0 mm 0.01 in0.3 mm
10:15 AM 20.4°F-6.4°C 5.1°F-14.9°C 51% 1.2 mph WNW1.9 kmh WNW 3.5 mph5.6 kmh 29.96 in1014.6 mb - 0.00 in0.0 mm 0.01 in0.3 mm
10:30 AM 21.1°F-6.1°C 5.3°F-14.8°C 50% 1.2 mph SW1.9 kmh SW 3.5 mph5.6 kmh 29.96 in1014.6 mb - 0.00 in0.0 mm 0.01 in0.3 mm
10:45 AM 21.7°F-5.7°C 5.5°F-14.7°C 49% Calm Calm 1.2 mph1.9 kmh 29.95 in1014.2 mb - 0.00 in0.0 mm 0.01 in0.3 mm
11:00 AM 22.6°F-5.2°C 5.8°F-14.6°C 48% Calm Calm 1.2 mph1.9 kmh 29.94 in1013.9 mb - 0.00 in0.0 mm 0.01 in0.3 mm
11:15 AM 23.2°F-4.9°C 6.4°F-14.2°C 48% Calm Calm 2.3 mph3.7 kmh 29.93 in1013.5 mb - 0.00 in0.0 mm 0.01 in0.3 mm
11:30 AM 23.8°F-4.6°C 6.9°F-13.9°C 48% Calm Calm 2.3 mph3.7 kmh 29.92 in1013.2 mb - 0.00 in0.0 mm 0.01 in0.3 mm
11:45 AM 24.5°F-4.2°C 6.2°F-14.3°C 45% Calm Calm 1.2 mph1.9 kmh 29.91 in1012.9 mb - 0.00 in0.0 mm 0.01 in0.3 mm
12:00 PM 24.8°F-4.0°C 5.9°F-14.5°C 44% 1.2 mph SW1.9 kmh SW 3.5 mph5.6 kmh 29.89 in1012.2 mb - 0.00 in0.0 mm 0.01 in0.3 mm
12:15 PM 25.7°F-3.5°C 6.8°F-14.0°C 44% 1.2 mph S1.9 kmh S 2.3 mph3.7 kmh 29.88 in1011.9 mb - 0.00 in0.0 mm 0.01 in0.3 mm
12:30 PM 26.3°F-3.2°C 7.3°F-13.7°C 44% 3.5 mph SW5.6 kmh SW 4.6 mph7.4 kmh 29.87 in1011.5 mb - 0.00 in0.0 mm 0.01 in0.3 mm
12:45 PM 26.9°F-2.8°C 7.3°F-13.7°C 43% 3.5 mph S5.6 kmh S 9.2 mph14.8 kmh 29.86 in1011.2 mb - 0.00 in0.0 mm 0.01 in0.3 mm
01:00 PM 27.1°F-2.7°C 7.0°F-13.9°C 42% 3.5 mph SW5.6 kmh SW 6.9 mph11.1 kmh 29.85 in1010.8 mb - 0.00 in0.0 mm 0.01 in0.3 mm
01:15 PM 27.1°F-2.7°C 7.5°F-13.6°C 43% 2.3 mph WSW3.7 kmh WSW 3.5 mph5.6 kmh 29.84 in1010.5 mb - 0.00 in0.0 mm 0.01 in0.3 mm
01:30 PM 28.2°F-2.1°C 8.0°F-13.3°C 42% 2.3 mph SSW3.7 kmh SSW 4.6 mph7.4 kmh 29.83 in1010.2 mb - 0.00 in0.0 mm 0.01 in0.3 mm
01:45 PM 28.9°F-1.7°C 8.7°F-12.9°C 42% 2.3 mph SSW3.7 kmh SSW 5.8 mph9.3 kmh 29.82 in1009.8 mb - 0.00 in0.0 mm 0.01 in0.3 mm
02:00 PM 28.9°F-1.7°C 8.7°F-12.9°C 42% 3.5 mph SSW5.6 kmh SSW 6.9 mph11.1 kmh 29.81 in1009.5 mb - 0.00 in0.0 mm 0.01 in0.3 mm
02:15 PM 29.6°F-1.3°C 8.2°F-13.2°C 40% 4.6 mph SSW7.4 kmh SSW 8.1 mph13.0 kmh 29.80 in1009.1 mb - 0.00 in0.0 mm 0.01 in0.3 mm
02:30 PM 30.6°F-0.8°C 9.1°F-12.7°C 40% 6.9 mph SW11.1 kmh SW 16.1 mph25.9 kmh 29.79 in1008.8 mb - 0.00 in0.0 mm 0.01 in0.3 mm
02:45 PM 31.3°F-0.4°C 10.3°F-12.1°C 41% 3.5 mph SSW5.6 kmh SSW 10.4 mph16.7 kmh 29.79 in1008.8 mb - 0.00 in0.0 mm 0.01 in0.3 mm
03:00 PM 31.2°F-0.4°C 10.7°F-11.8°C 42% 3.5 mph SSW5.6 kmh SSW 13.8 mph22.2 kmh 29.77 in1008.1 mb - 0.00 in0.0 mm 0.01 in0.3 mm
03:15 PM 30.6°F-0.8°C 10.2°F-12.1°C 42% 4.6 mph SSW7.4 kmh SSW 11.5 mph18.5 kmh 29.77 in1008.1 mb - 0.00 in0.0 mm 0.01 in0.3 mm
03:30 PM 30.6°F-0.8°C 11.2°F-11.6°C 44% 2.3 mph SSW3.7 kmh SSW 6.9 mph11.1 kmh 29.77 in1008.1 mb - 0.00 in0.0 mm 0.01 in0.3 mm
03:45 PM 30.8°F-0.7°C 11.4°F-11.4°C 44% 6.9 mph SW11.1 kmh SW 19.6 mph31.5 kmh 29.77 in1008.1 mb - 0.00 in0.0 mm 0.01 in0.3 mm
04:00 PM 30.4°F-0.9°C 13.9°F-10.1°C 50% 5.8 mph W9.3 kmh W 13.8 mph22.2 kmh 29.77 in1008.1 mb - 0.00 in0.0 mm 0.01 in0.3 mm
04:15 PM 27.9°F-2.3°C 20.1°F-6.6°C 72% 3.5 mph WSW5.6 kmh WSW 9.2 mph14.8 kmh 29.79 in1008.8 mb - 0.00 in0.0 mm 0.01 in0.3 mm
04:30 PM 25.7°F-3.5°C 22.4°F-5.3°C 87% 3.5 mph W5.6 kmh W 5.8 mph9.3 kmh 29.80 in1009.1 mb - 0.00 in0.0 mm 0.01 in0.3 mm
04:45 PM 21.1°F-6.1°C 17.6°F-8.0°C 86% 9.2 mph WNW14.8 kmh WNW 15.0 mph24.1 kmh 29.84 in1010.5 mb - 0.00 in0.0 mm 0.01 in0.3 mm
05:00 PM 19.7°F-6.8°C 14.3°F-9.8°C 79% 4.6 mph WNW7.4 kmh WNW 11.5 mph18.5 kmh 29.86 in1011.2 mb - 0.00 in0.0 mm 0.01 in0.3 mm
05:15 PM 19.9°F-6.7°C 12.9°F-10.6°C 74% 4.6 mph WNW7.4 kmh WNW 9.2 mph14.8 kmh 29.88 in1011.9 mb - 0.00 in0.0 mm 0.01 in0.3 mm
05:30 PM 19.7°F-6.8°C 11.2°F-11.6°C 69% 4.6 mph WNW7.4 kmh WNW 15.0 mph24.1 kmh 29.89 in1012.2 mb - 0.00 in0.0 mm 0.01 in0.3 mm
05:45 PM 19.1°F-7.2°C 9.3°F-12.6°C 65% 9.2 mph NW14.8 kmh NW 13.8 mph22.2 kmh 29.91 in1012.9 mb - 0.00 in0.0 mm 0.01 in0.3 mm
06:00 PM 18.3°F-7.6°C 7.8°F-13.4°C 63% 4.6 mph WNW7.4 kmh WNW 13.8 mph22.2 kmh 29.92 in1013.2 mb - 0.00 in0.0 mm 0.01 in0.3 mm
06:15 PM 17.1°F-8.3°C 2.5°F-16.4°C 52% 9.2 mph W14.8 kmh W 15.0 mph24.1 kmh 29.96 in1014.6 mb - 0.00 in0.0 mm 0.01 in0.3 mm
06:30 PM 14.4°F-9.8°C -3.6°F-19.8°C 44% 11.5 mph WNW18.5 kmh WNW 18.4 mph29.6 kmh 29.98 in1015.2 mb - 0.00 in0.0 mm 0.01 in0.3 mm
06:45 PM 12.9°F-10.6°C -6.9°F-21.6°C 40% 11.5 mph W18.5 kmh W 20.7 mph33.3 kmh 30.01 in1016.3 mb - 0.00 in0.0 mm 0.01 in0.3 mm
07:00 PM 11.9°F-11.2°C -8.9°F-22.7°C 38% 4.6 mph W7.4 kmh W 9.2 mph14.8 kmh 30.03 in1016.9 mb - 0.00 in0.0 mm 0.01 in0.3 mm
07:15 PM 10.9°F-11.7°C -10.4°F-23.6°C 37% 12.7 mph WNW20.4 kmh WNW 19.6 mph31.5 kmh 30.05 in1017.6 mb - 0.00 in0.0 mm 0.01 in0.3 mm
07:30 PM 10.0°F-12.2°C -11.1°F-23.9°C 37% 1.2 mph WNW1.9 kmh WNW 6.9 mph11.1 kmh 30.08 in1018.6 mb - 0.00 in0.0 mm 0.01 in0.3 mm
07:45 PM 8.6°F-13.0°C -15.3°F-26.3°C 32% 10.4 mph W16.7 kmh W 19.6 mph31.5 kmh 30.09 in1019.0 mb - 0.00 in0.0 mm 0.01 in0.3 mm
08:00 PM 8.2°F-13.2°C -14.4°F-25.8°C 34% 8.1 mph NW13.0 kmh NW 21.9 mph35.2 kmh 30.10 in1019.3 mb - 0.00 in0.0 mm 0.01 in0.3 mm
08:15 PM 7.7°F-13.5°C -14.9°F-26.1°C 34% 3.5 mph WNW5.6 kmh WNW 9.2 mph14.8 kmh 30.11 in1019.6 mb - 0.00 in0.0 mm 0.01 in0.3 mm
08:30 PM 7.4°F-13.7°C -14.5°F-25.8°C 35% 4.6 mph WNW7.4 kmh WNW 11.5 mph18.5 kmh 30.12 in1020.0 mb - 0.00 in0.0 mm 0.01 in0.3 mm
08:45 PM 7.3°F-13.7°C -14.7°F-25.9°C 35% 5.8 mph WNW9.3 kmh WNW 6.9 mph11.1 kmh 30.13 in1020.3 mb - 0.00 in0.0 mm 0.01 in0.3 mm
09:00 PM 7.1°F-13.8°C -14.3°F-25.7°C 36% 6.9 mph WNW11.1 kmh WNW 15.0 mph24.1 kmh 30.14 in1020.7 mb - 0.00 in0.0 mm 0.01 in0.3 mm
09:15 PM 6.9°F-13.9°C -14.5°F-25.8°C 36% 8.1 mph W13.0 kmh W 16.1 mph25.9 kmh 30.15 in1021.0 mb - 0.00 in0.0 mm 0.01 in0.3 mm
09:30 PM 6.7°F-14.1°C -13.6°F-25.3°C 38% 1.2 mph WNW1.9 kmh WNW 3.5 mph5.6 kmh 30.16 in1021.3 mb - 0.00 in0.0 mm 0.01 in0.3 mm
09:45 PM 6.5°F-14.2°C -14.8°F-26.0°C 36% 8.1 mph WNW13.0 kmh WNW 12.7 mph20.4 kmh 30.16 in1021.3 mb - 0.00 in0.0 mm 0.01 in0.3 mm
10:00 PM 6.2°F-14.3°C -14.6°F-25.9°C 37% 5.8 mph WNW9.3 kmh WNW 10.4 mph16.7 kmh 30.18 in1022.0 mb - 0.00 in0.0 mm 0.01 in0.3 mm
10:15 PM 6.0°F-14.4°C -14.2°F-25.7°C 38% 6.9 mph NW11.1 kmh NW 10.4 mph16.7 kmh 30.18 in1022.0 mb - 0.00 in0.0 mm 0.01 in0.3 mm
10:30 PM 5.6°F-14.7°C -15.1°F-26.2°C 37% 5.8 mph W9.3 kmh W 8.1 mph13.0 kmh 30.19 in1022.4 mb - 0.00 in0.0 mm 0.01 in0.3 mm
10:45 PM 5.2°F-14.9°C -15.5°F-26.4°C 37% 3.5 mph W5.6 kmh W 9.2 mph14.8 kmh 30.20 in1022.7 mb - 0.00 in0.0 mm 0.01 in0.3 mm
11:00 PM 5.0°F-15.0°C -14.6°F-25.9°C 39% 3.5 mph WNW5.6 kmh WNW 9.2 mph14.8 kmh 30.20 in1022.7 mb - 0.00 in0.0 mm 0.01 in0.3 mm
11:15 PM 4.7°F-15.2°C -14.9°F-26.1°C 39% 1.2 mph N1.9 kmh N 4.6 mph7.4 kmh 30.21 in1023.0 mb - 0.00 in0.0 mm 0.01 in0.3 mm
11:30 PM 4.4°F-15.3°C -15.2°F-26.2°C 39% 5.8 mph WNW9.3 kmh WNW 11.5 mph18.5 kmh 30.22 in1023.4 mb - 0.00 in0.0 mm 0.01 in0.3 mm
11:45 PM 4.2°F-15.4°C -14.8°F-26.0°C 40% 1.2 mph WNW1.9 kmh WNW 1.2 mph1.9 kmh 30.22 in1023.4 mb - 0.00 in0.0 mm 0.01 in0.3 mm